Time;durP1;ratioP1;P1;durP2;ratioP2;P2;SDS_P1;SDS_P2;PMS_P1;PMS_P2;Temp;Humidity;BMP_temperature;BMP_pressure;BME280_temperature;BME280_humidity;BME280_pressure;Samples;Min_cycle;Max_cycle;Signal;HPM_P1;HPM_P2
2024/03/31 00:01:04;;;;;;;14.32;2.30;;;;;;;;;;5034030;28;20044;-63
2024/03/31 00:03:30;;;;;;;7.18;2.13;;;;;;;;;;5036024;28;20400;-63
2024/03/31 00:05:57;;;;;;;2.08;1.67;;;;;;;;;;5035765;28;20498;-63
2024/03/31 00:08:23;;;;;;;4.35;2.00;;;;;;;;;;5036790;28;20635;-63
2024/03/31 00:10:57;;;;;;;2.03;1.60;;;;;;;;;;5032974;28;20095;-64
2024/03/31 00:13:23;;;;;;;1.42;1.38;;;;;;;;;;5032241;28;20029;-63
2024/03/31 00:15:49;;;;;;;1.75;1.65;;;;;;;;;;5048303;28;20036;-63
2024/03/31 00:18:15;;;;;;;4.47;1.27;;;;;;;;;;5031858;28;20025;-63
2024/03/31 00:20:41;;;;;;;1.20;1.20;;;;;;;;;;5031240;28;20025;-63
2024/03/31 00:23:07;;;;;;;2.35;1.55;;;;;;;;;;5036508;28;20033;-63
2024/03/31 00:25:33;;;;;;;1.42;1.42;;;;;;;;;;5034941;28;20028;-63
2024/03/31 00:28:00;;;;;;;1.70;1.60;;;;;;;;;;5031323;28;20029;-63
2024/03/31 00:30:26;;;;;;;2.72;1.50;;;;;;;;;;5033321;28;20068;-63
2024/03/31 00:32:52;;;;;;;1.50;1.40;;;;;;;;;;5034235;28;20025;-63
2024/03/31 00:35:18;;;;;;;1.15;1.15;;;;;;;;;;5037409;28;20369;-63
2024/03/31 00:37:44;;;;;;;1.10;1.10;;;;;;;;;;5032321;28;20790;-63
2024/03/31 00:40:10;;;;;;;1.75;1.38;;;;;;;;;;5035228;28;20033;-63
2024/03/31 00:42:36;;;;;;;1.67;1.58;;;;;;;;;;5031333;28;20440;-63
2024/03/31 00:45:03;;;;;;;1.40;1.40;;;;;;;;;;5036524;28;20090;-63
2024/03/31 00:47:29;;;;;;;4.30;1.63;;;;;;;;;;5040498;28;20435;-63
2024/03/31 00:49:55;;;;;;;1.42;1.33;;;;;;;;;;5038067;28;20028;-63
2024/03/31 00:52:21;;;;;;;2.78;1.80;;;;;;;;;;5038466;28;20049;-62
2024/03/31 00:54:47;;;;;;;2.15;1.70;;;;;;;;;;5036216;28;20029;-63
2024/03/31 00:57:13;;;;;;;6.70;1.83;;;;;;;;;;5036427;28;20485;-66
2024/03/31 00:59:40;;;;;;;1.83;1.67;;;;;;;;;;5039079;28;20087;-66
2024/03/31 01:02:06;;;;;;;1.70;1.58;;;;;;;;;;5037317;28;20035;-66
2024/03/31 01:04:33;;;;;;;3.65;1.65;;;;;;;;;;5033040;28;20102;-67
2024/03/31 01:06:59;;;;;;;2.08;1.88;;;;;;;;;;5033878;28;20120;-67
2024/03/31 01:09:25;;;;;;;2.97;1.80;;;;;;;;;;5037426;28;20771;-67
2024/03/31 01:11:52;;;;;;;1.38;1.30;;;;;;;;;;5044160;28;20082;-66
2024/03/31 01:14:18;;;;;;;1.58;1.48;;;;;;;;;;5036831;28;20313;-66
2024/03/31 01:16:44;;;;;;;1.30;1.30;;;;;;;;;;5041460;28;20030;-67
2024/03/31 01:19:10;;;;;;;2.40;1.70;;;;;;;;;;5039943;28;20029;-67
2024/03/31 01:21:38;;;;;;;1.63;1.52;;;;;;;;;;5040806;28;20025;-67
2024/03/31 01:24:04;;;;;;;4.15;2.42;;;;;;;;;;5041056;28;20061;-66
2024/03/31 01:26:31;;;;;;;1.83;1.73;;;;;;;;;;5039604;28;20029;-67
2024/03/31 01:28:57;;;;;;;1.92;1.50;;;;;;;;;;5034786;28;20457;-63
2024/03/31 01:31:24;;;;;;;1.40;1.35;;;;;;;;;;5038651;28;20104;-63
2024/03/31 01:33:51;;;;;;;1.80;1.70;;;;;;;;;;5038617;28;20036;-63
2024/03/31 01:36:17;;;;;;;1.30;1.30;;;;;;;;;;5045388;28;20640;-62
2024/03/31 01:38:43;;;;;;;1.40;1.30;;;;;;;;;;5038723;28;20029;-63
2024/03/31 01:41:09;;;;;;;2.72;1.58;;;;;;;;;;5037223;28;20025;-63
2024/03/31 01:43:37;;;;;;;1.90;1.80;;;;;;;;;;5040395;28;20036;-63
2024/03/31 01:46:03;;;;;;;1.50;1.40;;;;;;;;;;5043287;28;20025;-63
2024/03/31 01:48:29;;;;;;;1.73;1.63;;;;;;;;;;5036503;28;20032;-66
2024/03/31 01:50:56;;;;;;;4.80;1.33;;;;;;;;;;5033925;28;20539;-63
2024/03/31 01:53:22;;;;;;;7.28;1.83;;;;;;;;;;5031564;28;20040;-63
2024/03/31 01:55:48;;;;;;;1.55;1.33;;;;;;;;;;5033076;28;20029;-63
2024/03/31 01:58:14;;;;;;;1.52;1.42;;;;;;;;;;5039436;28;20021;-63
2024/03/31 02:00:40;;;;;;;1.65;1.50;;;;;;;;;;5044221;28;20029;-66
2024/03/31 02:03:06;;;;;;;4.60;1.30;;;;;;;;;;5040944;28;20114;-66
2024/03/31 02:05:32;;;;;;;2.88;1.45;;;;;;;;;;5039205;28;20025;-67
2024/03/31 02:07:58;;;;;;;8.50;1.55;;;;;;;;;;5038163;28;20281;-67
2024/03/31 02:10:25;;;;;;;2.88;2.00;;;;;;;;;;5031039;28;20033;-66
2024/03/31 02:12:51;;;;;;;3.00;1.55;;;;;;;;;;5037369;28;20029;-66
2024/03/31 02:15:17;;;;;;;8.90;1.70;;;;;;;;;;5039434;28;20535;-66
2024/03/31 02:17:43;;;;;;;1.73;1.63;;;;;;;;;;5041828;28;20237;-66
2024/03/31 02:20:10;;;;;;;1.58;1.48;;;;;;;;;;5036312;28;20122;-67
2024/03/31 02:22:36;;;;;;;2.00;1.67;;;;;;;;;;5040530;28;20111;-66
2024/03/31 02:25:02;;;;;;;2.85;1.42;;;;;;;;;;5036273;28;20033;-66
2024/03/31 02:27:28;;;;;;;7.03;1.80;;;;;;;;;;5037991;28;20040;-66
2024/03/31 02:29:54;;;;;;;1.85;1.73;;;;;;;;;;5038673;28;20017;-67
2024/03/31 02:32:21;;;;;;;1.83;1.67;;;;;;;;;;5031654;28;20145;-66
2024/03/31 02:34:47;;;;;;;4.15;1.45;;;;;;;;;;5031813;28;21339;-66
2024/03/31 02:37:13;;;;;;;1.65;1.42;;;;;;;;;;5038068;28;20037;-63
2024/03/31 02:39:39;;;;;;;6.63;2.13;;;;;;;;;;5030509;28;20075;-63
2024/03/31 02:42:05;;;;;;;4.07;2.05;;;;;;;;;;5031441;28;20067;-63
2024/03/31 02:44:31;;;;;;;10.00;1.92;;;;;;;;;;5036307;28;20043;-63
2024/03/31 02:46:57;;;;;;;5.15;1.63;;;;;;;;;;5033298;28;20033;-63
2024/03/31 02:49:24;;;;;;;7.63;1.80;;;;;;;;;;5033718;28;20036;-63
2024/03/31 02:51:51;;;;;;;4.00;2.00;;;;;;;;;;5036524;28;20150;-63
2024/03/31 02:54:19;;;;;;;3.42;1.75;;;;;;;;;;5036590;28;20600;-66
2024/03/31 02:56:45;;;;;;;1.67;1.35;;;;;;;;;;5039282;28;20468;-66
2024/03/31 02:59:12;;;;;;;1.42;1.40;;;;;;;;;;5040198;28;20033;-66
2024/03/31 03:01:38;;;;;;;4.03;1.50;;;;;;;;;;5039524;28;20025;-66
2024/03/31 03:04:04;;;;;;;4.60;1.90;;;;;;;;;;5049701;28;20813;-66
2024/03/31 03:06:30;;;;;;;3.30;1.92;;;;;;;;;;5037615;28;20032;-67
2024/03/31 03:08:56;;;;;;;1.90;1.63;;;;;;;;;;5034611;28;20033;-63
2024/03/31 03:11:23;;;;;;;3.97;2.25;;;;;;;;;;5031360;28;20075;-71
2024/03/31 03:13:49;;;;;;;1.75;1.65;;;;;;;;;;5034082;28;20713;-63
2024/03/31 03:16:15;;;;;;;4.93;2.25;;;;;;;;;;5035002;28;20890;-63
2024/03/31 03:18:41;;;;;;;1.60;1.50;;;;;;;;;;5042704;28;20029;-65
2024/03/31 03:21:08;;;;;;;4.43;1.65;;;;;;;;;;5037283;28;20036;-63
2024/03/31 03:23:34;;;;;;;3.85;2.08;;;;;;;;;;5033402;28;20036;-63
2024/03/31 03:26:01;;;;;;;4.85;1.70;;;;;;;;;;5037471;28;20029;-62
2024/03/31 03:28:27;;;;;;;2.47;1.55;;;;;;;;;;5037431;28;20024;-63
2024/03/31 03:30:53;;;;;;;5.78;1.80;;;;;;;;;;5027914;28;20234;-62
2024/03/31 03:33:20;;;;;;;2.35;1.80;;;;;;;;;;5038908;28;20492;-63
2024/03/31 03:35:46;;;;;;;5.25;2.10;;;;;;;;;;5034023;28;20029;-63
2024/03/31 03:38:12;;;;;;;2.20;1.80;;;;;;;;;;5037376;28;20559;-63
2024/03/31 03:40:38;;;;;;;4.88;1.42;;;;;;;;;;5036534;28;20074;-65
2024/03/31 03:43:04;;;;;;;2.35;1.63;;;;;;;;;;5033032;28;20029;-63
2024/03/31 03:45:31;;;;;;;10.43;1.80;;;;;;;;;;5034012;28;20079;-62
2024/03/31 03:47:57;;;;;;;4.28;2.25;;;;;;;;;;5028421;28;20030;-62
2024/03/31 03:50:24;;;;;;;6.78;2.38;;;;;;;;;;5031602;28;20294;-66
2024/03/31 03:52:50;;;;;;;2.47;2.08;;;;;;;;;;5033834;28;20278;-66
2024/03/31 03:55:16;;;;;;;2.80;2.22;;;;;;;;;;5032949;28;20104;-66
2024/03/31 03:57:42;;;;;;;4.20;1.88;;;;;;;;;;5035611;28;20108;-66
2024/03/31 04:00:09;;;;;;;4.57;2.05;;;;;;;;;;5034008;28;20093;-65
2024/03/31 04:02:35;;;;;;;2.55;1.52;;;;;;;;;;5035374;28;20551;-67
2024/03/31 04:05:03;;;;;;;3.90;2.08;;;;;;;;;;5037743;28;20377;-66
2024/03/31 04:07:29;;;;;;;5.28;2.25;;;;;;;;;;5038636;28;20040;-66
2024/03/31 04:09:55;;;;;;;6.95;2.28;;;;;;;;;;5033562;28;20948;-66
2024/03/31 04:12:21;;;;;;;5.55;2.28;;;;;;;;;;5051736;28;20385;-67
2024/03/31 04:14:47;;;;;;;2.83;1.77;;;;;;;;;;5035334;28;20037;-66
2024/03/31 04:17:15;;;;;;;4.05;2.15;;;;;;;;;;5034543;28;20063;-66
2024/03/31 04:19:41;;;;;;;4.90;2.25;;;;;;;;;;5035835;28;20203;-63
2024/03/31 04:22:07;;;;;;;2.90;1.80;;;;;;;;;;5034460;28;20021;-63
2024/03/31 04:24:33;;;;;;;3.42;1.95;;;;;;;;;;5038739;28;20033;-62
2024/03/31 04:26:59;;;;;;;6.97;2.05;;;;;;;;;;5035738;28;20051;-63
2024/03/31 04:29:25;;;;;;;2.83;2.13;;;;;;;;;;5038162;28;20021;-63
2024/03/31 04:31:55;;;;;;;3.03;1.80;;;;;;;;;;5039334;28;20563;-63
2024/03/31 04:34:22;;;;;;;5.28;2.05;;;;;;;;;;5066462;28;20036;-63
2024/03/31 04:36:51;;;;;;;5.32;2.17;;;;;;;;;;5040812;28;20104;-62
2024/03/31 04:39:17;;;;;;;8.40;1.90;;;;;;;;;;5037693;28;20028;-63
2024/03/31 04:41:43;;;;;;;4.50;1.98;;;;;;;;;;5032598;28;20024;-63
2024/03/31 04:44:09;;;;;;;3.92;1.95;;;;;;;;;;5044015;28;20037;-63
2024/03/31 04:46:35;;;;;;;3.03;2.22;;;;;;;;;;5034174;28;20103;-63
2024/03/31 04:49:02;;;;;;;5.38;2.22;;;;;;;;;;5039091;28;20029;-63
2024/03/31 04:51:28;;;;;;;9.95;1.80;;;;;;;;;;5040429;28;20504;-62
2024/03/31 04:53:54;;;;;;;5.90;1.90;;;;;;;;;;5042891;28;20021;-62
2024/03/31 04:56:20;;;;;;;7.43;2.60;;;;;;;;;;5038521;28;20583;-62
2024/03/31 04:58:46;;;;;;;6.97;2.05;;;;;;;;;;5043140;28;20029;-63
2024/03/31 05:01:13;;;;;;;2.30;1.80;;;;;;;;;;5035204;28;20123;-62
2024/03/31 05:03:39;;;;;;;2.25;1.70;;;;;;;;;;5034324;28;20571;-63
2024/03/31 05:06:05;;;;;;;3.22;1.92;;;;;;;;;;5030789;28;20029;-63
2024/03/31 05:08:31;;;;;;;1.75;1.65;;;;;;;;;;5039834;28;20068;-63
2024/03/31 05:10:58;;;;;;;5.18;2.10;;;;;;;;;;5038944;28;20028;-63
2024/03/31 05:13:27;;;;;;;4.43;2.03;;;;;;;;;;5035088;28;20484;-63
2024/03/31 05:16:04;;;;;;;6.70;2.45;;;;;;;;;;5037438;28;20040;-63
2024/03/31 05:18:30;;;;;;;3.35;2.08;;;;;;;;;;5064766;28;20044;-63
2024/03/31 05:20:56;;;;;;;2.35;1.90;;;;;;;;;;5038703;28;20374;-63
2024/03/31 05:23:23;;;;;;;1.73;1.63;;;;;;;;;;5040305;28;20131;-62
2024/03/31 05:25:49;;;;;;;7.43;2.20;;;;;;;;;;5042538;28;20045;-63
2024/03/31 05:28:15;;;;;;;5.40;2.13;;;;;;;;;;5040051;28;20021;-62
2024/03/31 05:30:41;;;;;;;2.78;2.00;;;;;;;;;;5034714;28;20107;-63
2024/03/31 05:33:07;;;;;;;9.30;2.47;;;;;;;;;;5036440;28;20029;-63
2024/03/31 05:35:33;;;;;;;3.10;1.75;;;;;;;;;;5033845;28;20064;-62
2024/03/31 05:37:59;;;;;;;1.92;1.80;;;;;;;;;;5041275;28;20501;-62
2024/03/31 05:40:26;;;;;;;2.65;1.95;;;;;;;;;;5038425;28;20408;-62
2024/03/31 05:42:52;;;;;;;2.63;2.28;;;;;;;;;;5038900;28;20575;-63
2024/03/31 05:45:18;;;;;;;8.93;2.38;;;;;;;;;;5038904;28;20052;-63
2024/03/31 05:47:44;;;;;;;1.58;1.48;;;;;;;;;;5038952;28;20037;-63
2024/03/31 05:50:10;;;;;;;2.50;1.65;;;;;;;;;;5033670;28;20435;-63
2024/03/31 05:52:36;;;;;;;1.67;1.50;;;;;;;;;;5033890;28;20025;-62
2024/03/31 05:55:03;;;;;;;6.75;1.75;;;;;;;;;;5033959;28;20039;-62
2024/03/31 05:57:29;;;;;;;2.65;1.52;;;;;;;;;;5036804;28;20044;-63
2024/03/31 05:59:55;;;;;;;1.77;1.58;;;;;;;;;;5033876;28;20120;-63
2024/03/31 06:02:21;;;;;;;2.50;1.75;;;;;;;;;;5037241;28;20095;-63
2024/03/31 06:04:47;;;;;;;2.50;1.98;;;;;;;;;;5037245;28;20130;-63
2024/03/31 06:07:13;;;;;;;2.00;1.65;;;;;;;;;;5038322;28;20030;-62
2024/03/31 06:09:44;;;;;;;1.90;1.80;;;;;;;;;;5034960;28;20082;-63
2024/03/31 06:12:10;;;;;;;1.63;1.52;;;;;;;;;;5037460;28;20029;-63
2024/03/31 06:14:36;;;;;;;2.55;2.15;;;;;;;;;;5038968;28;20881;-67
2024/03/31 06:17:03;;;;;;;5.95;1.92;;;;;;;;;;5037809;28;20392;-67
2024/03/31 06:19:29;;;;;;;2.15;1.90;;;;;;;;;;5042834;28;20719;-66
2024/03/31 06:21:55;;;;;;;1.80;1.70;;;;;;;;;;5033795;28;20037;-66
2024/03/31 06:24:21;;;;;;;5.82;1.92;;;;;;;;;;5033754;28;20029;-66
2024/03/31 06:26:47;;;;;;;2.95;1.95;;;;;;;;;;5037891;28;20071;-66
2024/03/31 06:29:13;;;;;;;4.32;1.80;;;;;;;;;;5034060;28;20039;-67
2024/03/31 06:31:40;;;;;;;3.80;2.00;;;;;;;;;;5038523;28;20029;-66
2024/03/31 06:34:06;;;;;;;3.85;2.15;;;;;;;;;;5040213;28;20104;-66
2024/03/31 06:36:32;;;;;;;7.03;2.17;;;;;;;;;;5036268;28;20037;-67
2024/03/31 06:38:58;;;;;;;3.53;1.90;;;;;;;;;;5045595;28;20032;-67
2024/03/31 06:41:24;;;;;;;4.25;1.80;;;;;;;;;;5032783;28;20021;-66
2024/03/31 06:43:50;;;;;;;10.00;2.20;;;;;;;;;;5034306;28;20034;-66
2024/03/31 06:46:17;;;;;;;1.90;1.80;;;;;;;;;;5037302;28;20613;-67
2024/03/31 06:48:43;;;;;;;4.57;2.30;;;;;;;;;;5037410;28;20033;-66
2024/03/31 06:51:09;;;;;;;4.50;1.73;;;;;;;;;;5033160;28;21041;-67
2024/03/31 06:53:35;;;;;;;6.25;2.15;;;;;;;;;;5040115;28;20079;-67
2024/03/31 06:56:01;;;;;;;6.32;1.88;;;;;;;;;;5033544;28;20052;-67
2024/03/31 06:58:27;;;;;;;5.95;2.08;;;;;;;;;;5030277;28;20033;-67
2024/03/31 07:00:57;;;;;;;3.72;2.83;;;;;;;;;;5032630;28;20528;-67
2024/03/31 07:03:24;;;;;;;16.42;2.33;;;;;;;;;;5041170;28;20053;-66
2024/03/31 07:05:50;;;;;;;12.30;1.77;;;;;;;;;;5033314;28;20389;-67
2024/03/31 07:08:16;;;;;;;2.03;1.83;;;;;;;;;;5035415;28;20040;-67
2024/03/31 07:10:42;;;;;;;10.65;2.30;;;;;;;;;;5037543;28;20380;-66
2024/03/31 07:13:08;;;;;;;3.33;1.65;;;;;;;;;;5044337;28;20025;-67
2024/03/31 07:15:35;;;;;;;4.57;1.70;;;;;;;;;;5033867;28;20029;-67
2024/03/31 07:18:08;;;;;;;3.45;2.10;;;;;;;;;;5054183;28;20029;-67
2024/03/31 07:20:34;;;;;;;5.88;2.00;;;;;;;;;;5034028;28;20025;-68
2024/03/31 07:23:02;;;;;;;9.38;2.60;;;;;;;;;;5039715;28;20087;-67
2024/03/31 07:25:29;;;;;;;5.20;2.40;;;;;;;;;;5034462;28;20056;-66
2024/03/31 07:27:55;;;;;;;4.28;2.03;;;;;;;;;;5034561;28;20025;-66
2024/03/31 07:30:22;;;;;;;6.45;2.25;;;;;;;;;;5036868;28;20480;-72
2024/03/31 07:32:49;;;;;;;7.07;2.42;;;;;;;;;;5034121;28;20473;-66
2024/03/31 07:35:15;;;;;;;9.15;2.50;;;;;;;;;;5032494;28;20044;-67
2024/03/31 07:37:42;;;;;;;2.65;1.77;;;;;;;;;;5052364;28;20081;-66
2024/03/31 07:40:08;;;;;;;5.60;1.98;;;;;;;;;;5038106;28;20052;-65
2024/03/31 07:42:34;;;;;;;4.35;2.05;;;;;;;;;;5037827;28;20032;-66
2024/03/31 07:45:00;;;;;;;3.88;2.00;;;;;;;;;;5039982;28;20025;-66
2024/03/31 07:47:27;;;;;;;1.60;1.50;;;;;;;;;;5032391;28;20490;-71
2024/03/31 07:49:53;;;;;;;6.25;2.38;;;;;;;;;;5034357;28;20028;-66
2024/03/31 07:52:19;;;;;;;1.58;1.48;;;;;;;;;;5034365;28;20025;-65
2024/03/31 07:54:45;;;;;;;4.82;2.50;;;;;;;;;;5037038;28;20040;-71
2024/03/31 07:57:17;;;;;;;2.20;1.70;;;;;;;;;;5034484;28;20032;-64
2024/03/31 07:59:45;;;;;;;4.28;1.98;;;;;;;;;;5033115;28;20032;-70
2024/03/31 08:02:11;;;;;;;8.32;2.15;;;;;;;;;;5035986;28;20072;-68
2024/03/31 08:04:39;;;;;;;5.55;1.85;;;;;;;;;;5031675;28;20044;-71
2024/03/31 08:07:05;;;;;;;4.90;2.15;;;;;;;;;;5034991;28;20334;-68
2024/03/31 08:09:31;;;;;;;4.10;2.17;;;;;;;;;;5031339;28;20029;-68
2024/03/31 08:11:57;;;;;;;5.72;2.20;;;;;;;;;;5034873;28;20095;-69
2024/03/31 08:14:24;;;;;;;4.78;1.52;;;;;;;;;;5046467;28;20124;-66
2024/03/31 08:16:50;;;;;;;5.05;2.30;;;;;;;;;;5030851;28;20467;-64
2024/03/31 08:19:17;;;;;;;4.82;1.95;;;;;;;;;;5026415;28;20033;-70
2024/03/31 08:21:43;;;;;;;6.93;2.17;;;;;;;;;;5029098;28;20029;-70
2024/03/31 08:24:09;;;;;;;3.63;2.10;;;;;;;;;;5032409;28;20103;-70
2024/03/31 08:26:35;;;;;;;3.17;1.80;;;;;;;;;;5037572;28;20029;-64
2024/03/31 08:29:01;;;;;;;5.20;2.75;;;;;;;;;;5029206;28;20029;-63
2024/03/31 08:31:28;;;;;;;2.83;2.13;;;;;;;;;;5030782;28;20021;-64
2024/03/31 08:33:54;;;;;;;7.35;2.20;;;;;;;;;;5035427;28;20078;-64
2024/03/31 08:36:20;;;;;;;2.05;1.85;;;;;;;;;;5029014;28;20033;-64
2024/03/31 08:38:46;;;;;;;7.35;2.20;;;;;;;;;;5032186;28;20032;-70
2024/03/31 08:41:17;;;;;;;6.28;1.95;;;;;;;;;;5037205;28;20061;-70
2024/03/31 08:43:46;;;;;;;5.90;2.20;;;;;;;;;;5037858;28;20036;-65
2024/03/31 08:46:12;;;;;;;3.00;2.25;;;;;;;;;;5035614;28;20123;-64
2024/03/31 08:48:39;;;;;;;2.58;2.00;;;;;;;;;;5036684;28;20033;-64
2024/03/31 08:51:06;;;;;;;3.45;2.28;;;;;;;;;;5032790;28;20368;-64
2024/03/31 08:53:36;;;;;;;7.55;2.30;;;;;;;;;;5029218;28;20025;-64
2024/03/31 08:56:03;;;;;;;1.50;1.40;;;;;;;;;;5031900;28;20060;-66
2024/03/31 08:58:30;;;;;;;2.10;1.90;;;;;;;;;;5030345;28;20039;-65
2024/03/31 09:00:57;;;;;;;3.33;1.80;;;;;;;;;;5028145;28;20626;-67
2024/03/31 09:03:23;;;;;;;5.30;2.17;;;;;;;;;;5032650;28;20090;-64
2024/03/31 09:05:49;;;;;;;2.67;2.25;;;;;;;;;;5036332;28;20601;-65
2024/03/31 09:08:16;;;;;;;3.17;1.70;;;;;;;;;;5037894;28;20029;-65
2024/03/31 09:10:42;;;;;;;2.38;1.58;;;;;;;;;;5033709;28;20025;-64
2024/03/31 09:13:08;;;;;;;1.92;1.80;;;;;;;;;;5035928;28;20105;-63
2024/03/31 09:15:36;;;;;;;2.55;1.70;;;;;;;;;;5034314;28;20049;-67
2024/03/31 09:18:03;;;;;;;6.57;1.98;;;;;;;;;;5041323;28;20047;-67
2024/03/31 09:20:31;;;;;;;5.93;2.00;;;;;;;;;;5037053;28;20091;-68
2024/03/31 09:22:57;;;;;;;3.53;2.03;;;;;;;;;;5040615;28;20033;-68
2024/03/31 09:25:27;;;;;;;2.22;1.60;;;;;;;;;;5037175;28;20039;-66
2024/03/31 09:28:04;;;;;;;2.60;2.40;;;;;;;;;;5050932;28;20025;-66
2024/03/31 09:30:31;;;;;;;5.55;2.17;;;;;;;;;;5035424;28;20036;-67
2024/03/31 09:32:57;;;;;;;3.05;1.80;;;;;;;;;;5034652;28;20027;-67
2024/03/31 09:35:24;;;;;;;1.92;1.75;;;;;;;;;;5036704;28;20035;-68
2024/03/31 09:37:50;;;;;;;3.17;1.70;;;;;;;;;;5039139;28;20032;-69
2024/03/31 09:40:17;;;;;;;2.80;2.15;;;;;;;;;;5036589;28;20812;-68
2024/03/31 09:42:44;;;;;;;1.58;1.48;;;;;;;;;;5040158;28;20029;-69
2024/03/31 09:45:11;;;;;;;1.70;1.55;;;;;;;;;;5036186;28;20484;-68
2024/03/31 09:47:38;;;;;;;6.47;2.20;;;;;;;;;;5033653;28;20025;-67
2024/03/31 09:50:08;;;;;;;1.60;1.50;;;;;;;;;;5039416;28;20029;-67
2024/03/31 09:52:35;;;;;;;1.70;1.60;;;;;;;;;;5041466;28;20120;-67
2024/03/31 09:55:08;;;;;;;1.95;1.75;;;;;;;;;;5036444;28;20274;-67
2024/03/31 09:57:37;;;;;;;2.28;1.90;;;;;;;;;;5038351;28;20029;-67
2024/03/31 10:00:05;;;;;;;1.75;1.63;;;;;;;;;;5028822;28;20037;-64
2024/03/31 10:02:32;;;;;;;7.90;2.17;;;;;;;;;;5038229;28;20669;-64
2024/03/31 10:05:06;;;;;;;2.33;1.80;;;;;;;;;;5040256;28;20032;-64
2024/03/31 10:07:32;;;;;;;4.47;1.92;;;;;;;;;;5036682;28;20033;-64
2024/03/31 10:10:01;;;;;;;2.65;2.00;;;;;;;;;;5055559;28;20040;-67
2024/03/31 10:12:28;;;;;;;1.58;1.48;;;;;;;;;;5035256;28;20040;-66
2024/03/31 10:14:55;;;;;;;2.80;2.17;;;;;;;;;;5034728;28;20100;-66
2024/03/31 10:17:22;;;;;;;3.35;3.00;;;;;;;;;;5035875;28;20025;-67
2024/03/31 10:19:49;;;;;;;3.08;1.83;;;;;;;;;;5033620;28;20061;-66
2024/03/31 10:22:16;;;;;;;6.45;2.15;;;;;;;;;;5030567;28;20377;-66
2024/03/31 10:24:42;;;;;;;2.50;1.90;;;;;;;;;;5039056;28;20021;-67
2024/03/31 10:27:08;;;;;;;2.33;2.00;;;;;;;;;;5037190;28;20472;-67
2024/03/31 10:29:36;;;;;;;2.75;1.98;;;;;;;;;;5037069;28;20511;-66
2024/03/31 10:32:02;;;;;;;6.47;1.90;;;;;;;;;;5035286;28;20507;-67
2024/03/31 10:34:28;;;;;;;3.65;1.88;;;;;;;;;;5038286;28;20055;-67
2024/03/31 10:36:55;;;;;;;4.55;2.35;;;;;;;;;;5038057;28;20481;-68
2024/03/31 10:39:22;;;;;;;2.30;2.10;;;;;;;;;;5034795;28;20455;-67
2024/03/31 10:41:49;;;;;;;6.07;1.88;;;;;;;;;;5038085;28;20025;-67
2024/03/31 10:44:16;;;;;;;3.78;1.80;;;;;;;;;;5020074;28;20282;-64
2024/03/31 10:46:45;;;;;;;1.77;1.67;;;;;;;;;;5035250;28;20021;-64
2024/03/31 10:49:11;;;;;;;4.72;2.10;;;;;;;;;;5038647;28;20539;-64
2024/03/31 10:51:41;;;;;;;3.03;2.10;;;;;;;;;;5036653;28;20099;-65
2024/03/31 10:54:28;;;;;;;5.00;2.00;;;;;;;;;;5034280;28;20029;-67
2024/03/31 10:57:05;;;;;;;2.08;1.88;;;;;;;;;;5036026;28;20102;-68
2024/03/31 10:59:31;;;;;;;4.57;2.20;;;;;;;;;;5038320;28;20100;-68
2024/03/31 11:02:11;;;;;;;4.78;2.00;;;;;;;;;;5041146;28;20159;-68
2024/03/31 11:04:37;;;;;;;2.92;2.05;;;;;;;;;;5037414;28;20040;-70
2024/03/31 11:07:04;;;;;;;6.15;3.03;;;;;;;;;;5039666;28;20358;-70
2024/03/31 11:09:30;;;;;;;7.45;2.53;;;;;;;;;;5038482;28;20021;-69
2024/03/31 11:11:58;;;;;;;4.15;2.75;;;;;;;;;;5031877;28;20040;-67
2024/03/31 11:14:25;;;;;;;2.22;1.95;;;;;;;;;;5033408;28;20029;-67
2024/03/31 11:16:51;;;;;;;4.80;2.00;;;;;;;;;;5037274;28;20041;-67
2024/03/31 11:19:20;;;;;;;4.40;2.72;;;;;;;;;;5039289;28;20033;-69
2024/03/31 11:21:47;;;;;;;4.22;2.42;;;;;;;;;;5045442;28;21528;-67
2024/03/31 11:24:14;;;;;;;5.05;2.30;;;;;;;;;;5039525;28;20043;-68
2024/03/31 11:26:40;;;;;;;2.38;2.05;;;;;;;;;;5037731;28;20116;-68
2024/03/31 11:29:07;;;;;;;3.13;2.13;;;;;;;;;;5035472;28;20029;-68
2024/03/31 11:31:34;;;;;;;2.47;1.95;;;;;;;;;;5038544;28;20021;-68
2024/03/31 11:34:01;;;;;;;1.95;1.50;;;;;;;;;;5034021;28;20047;-66
2024/03/31 11:36:27;;;;;;;5.03;2.17;;;;;;;;;;5038215;28;20163;-67
2024/03/31 11:38:54;;;;;;;4.03;1.80;;;;;;;;;;5033202;28;20434;-67
2024/03/31 11:41:20;;;;;;;3.65;2.40;;;;;;;;;;5051640;28;20037;-66
2024/03/31 11:43:47;;;;;;;2.10;1.90;;;;;;;;;;5031675;28;20036;-67
2024/03/31 11:46:13;;;;;;;2.22;2.03;;;;;;;;;;5033323;28;20068;-66
2024/03/31 11:48:39;;;;;;;4.63;1.98;;;;;;;;;;5034849;28;20032;-67
2024/03/31 11:51:05;;;;;;;2.20;1.50;;;;;;;;;;5037805;28;20108;-66
2024/03/31 11:53:31;;;;;;;4.30;2.00;;;;;;;;;;5036800;28;20033;-66
2024/03/31 11:55:58;;;;;;;3.45;1.80;;;;;;;;;;5037463;28;20065;-67
2024/03/31 11:58:24;;;;;;;2.92;2.00;;;;;;;;;;5032823;28;20063;-68
2024/03/31 12:00:53;;;;;;;3.85;2.05;;;;;;;;;;5033744;28;20033;-67
2024/03/31 12:03:19;;;;;;;1.80;1.70;;;;;;;;;;5052174;28;20049;-67
2024/03/31 12:05:50;;;;;;;1.73;1.63;;;;;;;;;;5037703;28;20044;-67
2024/03/31 12:08:17;;;;;;;1.90;1.80;;;;;;;;;;5034305;28;20029;-68
2024/03/31 12:10:47;;;;;;;1.60;1.50;;;;;;;;;;5034407;28;20021;-65
2024/03/31 12:13:14;;;;;;;4.28;2.10;;;;;;;;;;5038573;28;20029;-67
2024/03/31 12:15:40;;;;;;;2.10;1.90;;;;;;;;;;5032322;28;20112;-66
2024/03/31 12:18:07;;;;;;;3.97;2.10;;;;;;;;;;5030609;28;20163;-68
2024/03/31 12:20:33;;;;;;;2.80;1.98;;;;;;;;;;5037431;28;20104;-68
2024/03/31 12:22:59;;;;;;;2.55;1.83;;;;;;;;;;5032989;28;20045;-67
2024/03/31 12:25:26;;;;;;;2.00;1.80;;;;;;;;;;5037866;28;20029;-68
2024/03/31 12:27:52;;;;;;;2.88;1.77;;;;;;;;;;5043795;28;20091;-68
2024/03/31 12:30:19;;;;;;;2.53;1.73;;;;;;;;;;5033633;28;20473;-68
2024/03/31 12:32:45;;;;;;;1.77;1.38;;;;;;;;;;5032041;28;20392;-68
2024/03/31 12:35:12;;;;;;;1.95;1.80;;;;;;;;;;5035236;28;20384;-67
2024/03/31 12:37:38;;;;;;;2.00;1.80;;;;;;;;;;5036149;28;20068;-68
2024/03/31 12:40:06;;;;;;;3.25;1.63;;;;;;;;;;5042689;28;20044;-68
2024/03/31 12:42:33;;;;;;;1.85;1.65;;;;;;;;;;5037973;28;20488;-69
2024/03/31 12:44:59;;;;;;;3.58;1.67;;;;;;;;;;5047588;28;20035;-68
2024/03/31 12:47:25;;;;;;;3.85;1.73;;;;;;;;;;5042402;28;20044;-68
2024/03/31 12:49:51;;;;;;;1.70;1.60;;;;;;;;;;5038194;28;20535;-68
2024/03/31 12:52:18;;;;;;;6.55;1.95;;;;;;;;;;5037888;28;20831;-68
2024/03/31 12:54:44;;;;;;;2.53;2.10;;;;;;;;;;5040923;28;20546;-68
2024/03/31 12:57:10;;;;;;;2.30;2.10;;;;;;;;;;5035018;28;20064;-68
2024/03/31 12:59:40;;;;;;;2.38;2.17;;;;;;;;;;5032448;28;20025;-67
2024/03/31 13:02:07;;;;;;;2.97;1.65;;;;;;;;;;5037716;28;20120;-67
2024/03/31 13:04:33;;;;;;;3.15;1.70;;;;;;;;;;5043488;28;20572;-69
2024/03/31 13:06:59;;;;;;;2.72;1.75;;;;;;;;;;5036494;28;20029;-68
2024/03/31 13:09:26;;;;;;;2.78;1.90;;;;;;;;;;5037206;28;20021;-67
2024/03/31 13:11:52;;;;;;;2.03;1.73;;;;;;;;;;5031999;28;20030;-68
2024/03/31 13:14:18;;;;;;;5.82;2.05;;;;;;;;;;5035615;28;20032;-67
2024/03/31 13:16:44;;;;;;;2.15;1.90;;;;;;;;;;5034215;28;20203;-68
2024/03/31 13:19:10;;;;;;;2.28;1.85;;;;;;;;;;5040000;28;20032;-68
2024/03/31 13:21:37;;;;;;;2.22;1.73;;;;;;;;;;5059348;28;20433;-64
2024/03/31 13:24:03;;;;;;;2.05;1.80;;;;;;;;;;5046789;28;20048;-65
2024/03/31 13:26:30;;;;;;;3.08;1.80;;;;;;;;;;5042375;28;20112;-65
2024/03/31 13:28:56;;;;;;;1.73;1.60;;;;;;;;;;5041401;28;20574;-68
2024/03/31 13:31:22;;;;;;;2.35;1.60;;;;;;;;;;5037056;28;20025;-68
2024/03/31 13:33:48;;;;;;;2.78;1.80;;;;;;;;;;5042160;28;20067;-67
2024/03/31 13:36:14;;;;;;;4.97;1.73;;;;;;;;;;5037115;28;20465;-66
2024/03/31 13:38:41;;;;;;;3.92;1.90;;;;;;;;;;5040062;28;20032;-67
2024/03/31 13:41:07;;;;;;;2.00;1.80;;;;;;;;;;5037281;28;20025;-67
2024/03/31 13:43:33;;;;;;;2.47;2.00;;;;;;;;;;5043257;28;20035;-66
2024/03/31 13:45:59;;;;;;;5.13;2.22;;;;;;;;;;5033293;28;20021;-66
2024/03/31 13:48:25;;;;;;;2.83;2.20;;;;;;;;;;5033681;28;20033;-67
2024/03/31 13:50:51;;;;;;;3.92;2.15;;;;;;;;;;5038949;28;20504;-67
2024/03/31 13:53:18;;;;;;;3.00;1.92;;;;;;;;;;5040566;28;20029;-68
2024/03/31 13:55:44;;;;;;;4.28;1.75;;;;;;;;;;5041695;28;20484;-66
2024/03/31 13:58:10;;;;;;;5.55;2.30;;;;;;;;;;5045229;28;20377;-68
2024/03/31 14:00:36;;;;;;;4.10;2.65;;;;;;;;;;5043583;28;21798;-67
2024/03/31 14:03:03;;;;;;;2.65;1.92;;;;;;;;;;5035388;28;20049;-67
2024/03/31 14:05:30;;;;;;;4.20;2.00;;;;;;;;;;5036391;28;20056;-67
2024/03/31 14:07:57;;;;;;;7.15;2.30;;;;;;;;;;5039170;28;20029;-68
2024/03/31 14:10:23;;;;;;;4.00;2.00;;;;;;;;;;5035549;28;20021;-68
2024/03/31 14:12:49;;;;;;;2.22;2.03;;;;;;;;;;5040556;28;20564;-68
2024/03/31 14:15:16;;;;;;;3.95;2.30;;;;;;;;;;5042939;28;20053;-68
2024/03/31 14:17:42;;;;;;;2.75;1.70;;;;;;;;;;5035119;28;20033;-63
2024/03/31 14:20:08;;;;;;;3.75;2.10;;;;;;;;;;5053342;28;20064;-63
2024/03/31 14:22:35;;;;;;;2.50;2.10;;;;;;;;;;5033769;28;20079;-63
2024/03/31 14:25:02;;;;;;;3.10;2.17;;;;;;;;;;5038262;28;20040;-64
2024/03/31 14:27:28;;;;;;;6.32;2.13;;;;;;;;;;5036287;28;20468;-63
2024/03/31 14:29:54;;;;;;;2.47;1.65;;;;;;;;;;5037442;28;20085;-64
2024/03/31 14:32:20;;;;;;;5.20;2.00;;;;;;;;;;5034617;28;20036;-64
2024/03/31 14:34:46;;;;;;;5.50;2.03;;;;;;;;;;5039285;28;20029;-67
2024/03/31 14:37:13;;;;;;;2.63;1.90;;;;;;;;;;5034913;28;20017;-65
2024/03/31 14:39:41;;;;;;;5.07;2.33;;;;;;;;;;5034705;28;20025;-65